WetterOnline ( https://www.wetteronline.de )

Wetter aktuell Bietigheim-Bissingen

Aktuelles Wetter: Schnarrenberg/Stuttgart (315m)

6-stündlich | Neueste Meldungen
Ortszeit Temperatur Wetter
So, 16.06. 8:00 14.7° C wolkig
So, 16.06. 2:00 13.6° C bewölkt
Sa, 15.06. 20:00 18.6° C wolkig
Sa, 15.06. 14:00 19.3° C leicht bewölkt
Sa, 15.06. 8:00 13.4° C wolkig
Sa, 15.06. 2:00 17.1° C bewölkt
Fr, 14.06. 20:00 19.6° C bedeckt
Fr, 14.06. 14:00 17.6° C bewölkt
Ortszeit Temperatur Wetter
So, 16.06. 9:30 17.3° C wolkig
So, 16.06. 9:20 17.3° C wolkig
So, 16.06. 9:10 17.1° C bewölkt
So, 16.06. 9:00 16.1° C leicht bewölkt
So, 16.06. 8:50 16.1° C wolkig
So, 16.06. 8:40 15.9° C bedeckt
So, 16.06. 8:30 15.8° C wolkig
So, 16.06. 8:00 14.7° C wolkig
So, 16.06. 7:30 14.4° C bedeckt
So, 16.06. 7:00 13.9° C bewölkt
So, 16.06. 6:30 13.6° C bewölkt
Ortszeit Relative Feuchte Sichtweite
So, 16.06. 8:00 71% 65 km
So, 16.06. 2:00 74% 65 km
Sa, 15.06. 20:00 46% >70 km
Sa, 15.06. 14:00 50% >70 km
Sa, 15.06. 8:00 96% 55 km
Sa, 15.06. 2:00 71% 65 km
Fr, 14.06. 20:00 62% >70 km
Fr, 14.06. 14:00 62% >70 km
Ortszeit Relative Feuchte Sichtweite
So, 16.06. 9:30 61% 50 km
So, 16.06. 9:20 61% -
So, 16.06. 9:10 60% -
So, 16.06. 9:00 64% >70 km
So, 16.06. 8:50 64% -
So, 16.06. 8:40 66% -
So, 16.06. 8:30 67% >70 km
So, 16.06. 8:00 71% 65 km
So, 16.06. 7:30 72% 50 km
So, 16.06. 7:00 75% >70 km
So, 16.06. 6:30 74% >70 km
Ortszeit Niederschlagsmenge Niederschlagsart
So, 16.06. 8:00 0.1 l/m2 in 12 Std. Regen
So, 16.06. 2:00 0.0 l/m2 in 6 Std. -
Sa, 15.06. 20:00 0.1 l/m2 in 12 Std. -
Sa, 15.06. 14:00 0.1 l/m2 in 6 Std. Regen
Sa, 15.06. 8:00 9 l/m2 in 12 Std. Regen
Sa, 15.06. 2:00 0.1 l/m2 in 6 Std. Regen
Fr, 14.06. 20:00 0.3 l/m2 in 12 Std. Regen
Fr, 14.06. 14:00 0.3 l/m2 in 6 Std. Regen
Ortszeit Niederschlagsmenge Niederschlagsart
So, 16.06. 9:30 0.0 l/m2 in 30 Min -
So, 16.06. 9:20 keine Meldung -
So, 16.06. 9:10 keine Meldung -
So, 16.06. 9:00 0.0 l/m2 in 1 Std. -
So, 16.06. 8:50 keine Meldung -
So, 16.06. 8:40 keine Meldung -
So, 16.06. 8:30 0.0 l/m2 in 30 Min -
So, 16.06. 8:00 0.0 l/m2 in 1 Std. Regen
So, 16.06. 7:30 0.0 l/m2 in 30 Min -
So, 16.06. 7:00 0.0 l/m2 in 1 Std. -
So, 16.06. 6:30 0.0 l/m2 in 30 Min -
Ortszeit Stärke Spitze Richtung
km/h Bft. km/h Grad Sektor
So, 16.06. 8:00 6 1 20 240° SW
So, 16.06. 2:00 4 1 25 140° SO
Sa, 15.06. 20:00 11 2 43 260° W
Sa, 15.06. 14:00 18 3 47 280° W
Sa, 15.06. 8:00 11 2 29 150° SO
Sa, 15.06. 2:00 9 2 24 160° S
Fr, 14.06. 20:00 7 2 29 220° SW
Fr, 14.06. 14:00 11 2 29 220° SW
Ortszeit Stärke Spitze Richtung
km/h Bft. km/h Grad Sektor
So, 16.06. 9:30 7 2 18 240° SW
So, 16.06. 9:20 7 2 - 240° SW
So, 16.06. 9:10 9 2 - 250° W
So, 16.06. 9:00 7 2 18 240° SW
So, 16.06. 8:50 7 2 - 240° SW
So, 16.06. 8:40 6 1 - 210° SW
So, 16.06. 8:30 7 2 18 200° S
So, 16.06. 8:00 6 1 13 240° SW
So, 16.06. 7:30 4 1 11 190° S
So, 16.06. 7:00 7 2 14 160° S
So, 16.06. 6:30 7 2 14 170° S
Ortszeit Untergrenze Bedeckung Gattung
total tief tief mittel hoch
So, 16.06. 8:00 2100 m 7/8 1/8 - - -
So, 16.06. 2:00 2700 m 7/8 7/8 - - -
Sa, 15.06. 20:00 6600 m 7/8 5/8 - - -
Sa, 15.06. 14:00 1380 m 2/8 2/8 - - -
Sa, 15.06. 8:00 180 m 8/8 3/8 - - -
Sa, 15.06. 2:00 1800 m 8/8 4/8 - - -
Fr, 14.06. 20:00 1080 m 8/8 8/8 - - -
Fr, 14.06. 14:00 960 m 7/8 7/8 - - -
Ortszeit Bedeckungsgrad in Achtel und Wolkenuntergrenze
So, 16.06. 9:30 2(1080m) 7(6600m) 7(9000m)
So, 16.06. 9:20 2(1080m) 7(6600m) 7(9000m)
So, 16.06. 9:10 7
So, 16.06. 9:00 1(870m) 7(7500m) 8(9000m)
So, 16.06. 8:50 1(870m) 7(7500m) 8(9000m)
So, 16.06. 8:40 8
So, 16.06. 8:30 6(7200m) 7(8400m) 8(9000m)
So, 16.06. 8:00 1(2100m) 7(3000m)
So, 16.06. 7:30 8(2700m) 8(3300m)
So, 16.06. 7:00 6(2400m) 7(2700m) 8(3300m)
So, 16.06. 6:30 7(2100m) 7(3300m)
Ortszeit Luftdruck NN (hPa) Tendenz (hPa in 3 Std.)
So, 16.06. 8:00 1012 + 0,5
So, 16.06. 2:00 1012 0,0
Sa, 15.06. 20:00 1010 + 0,6
Sa, 15.06. 14:00 1010 - 0,3
Sa, 15.06. 8:00 1009 + 1,6
Sa, 15.06. 2:00 1007 - 1,9
Fr, 14.06. 20:00 1010 - 1,2
Fr, 14.06. 14:00 1012 - 0,6
Ortszeit Luftdruck NN (hPa) Tendenz (hPa in 3 Std.)
So, 16.06. 9:30 1012 + 0,3
So, 16.06. 9:20 1012 keine Meldung
So, 16.06. 9:10 1012 keine Meldung
So, 16.06. 9:00 1012 + 0,4
So, 16.06. 8:50 1012 keine Meldung
So, 16.06. 8:40 1012 keine Meldung
So, 16.06. 8:30 1012 + 0,2
So, 16.06. 8:00 1012 + 0,5
So, 16.06. 7:30 1012 + 0,3
So, 16.06. 7:00 1012 + 0,3
So, 16.06. 6:30 1012 + 0,3
Ortszeit Schneehöhe (cm)
So, 16.06. 8:00 0
So, 16.06. 2:00 0
Sa, 15.06. 20:00 0
Sa, 15.06. 14:00 0
Sa, 15.06. 8:00 0
Sa, 15.06. 2:00 0
Fr, 14.06. 20:00 0
Fr, 14.06. 14:00 0
Ortszeit Schneehöhe (cm)
So, 16.06. 9:30 0
So, 16.06. 9:20 0
So, 16.06. 9:10 -
So, 16.06. 9:00 0
So, 16.06. 8:50 0
So, 16.06. 8:40 -
So, 16.06. 8:30 0
So, 16.06. 8:00 0
So, 16.06. 7:30 0
So, 16.06. 7:00 0
So, 16.06. 6:30 0
Link zu dieser Seite / Seite empfehlen

Das Wetter in ...